createdAt,value
2019-03-25T00:01:17.596Z,10.25
2019-03-25T00:03:46.382Z,10.24
2019-03-25T00:06:14.863Z,10.23
2019-03-25T00:08:43.387Z,10.14
2019-03-25T00:11:11.677Z,10.14
2019-03-25T00:13:40.191Z,9.95
2019-03-25T00:16:08.652Z,10.00
2019-03-25T00:18:36.935Z,9.97
2019-03-25T00:21:05.373Z,9.99
2019-03-25T00:23:33.612Z,9.97
2019-03-25T00:26:02.038Z,9.98
2019-03-25T00:28:30.636Z,9.94
2019-03-25T00:30:58.973Z,9.87
2019-03-25T00:33:27.841Z,9.81
2019-03-25T00:35:56.147Z,9.79
2019-03-25T00:38:24.436Z,9.77
2019-03-25T00:40:52.854Z,9.76
2019-03-25T00:43:21.760Z,9.77
2019-03-25T00:45:50.117Z,9.75
2019-03-25T00:48:18.354Z,9.76
2019-03-25T00:50:47.271Z,9.77
2019-03-25T00:53:28.875Z,9.78
2019-03-25T00:55:57.175Z,9.79
2019-03-25T00:58:25.554Z,9.79
2019-03-25T01:00:53.884Z,9.79
2019-03-25T01:03:22.172Z,9.78
2019-03-25T01:05:51.212Z,9.75
2019-03-25T01:08:19.592Z,9.75
2019-03-25T01:10:47.883Z,9.73
2019-03-25T01:13:16.269Z,9.74
2019-03-25T01:15:44.557Z,9.73
2019-03-25T01:18:17.220Z,9.72
2019-03-25T01:20:43.165Z,9.72
2019-03-25T01:23:12.322Z,9.65
2019-03-25T01:25:40.666Z,9.62
2019-03-25T01:28:09.047Z,9.67
2019-03-25T01:30:37.367Z,9.60
2019-03-25T01:33:05.629Z,9.55
2019-03-25T01:35:34.026Z,9.56
2019-03-25T01:38:02.312Z,9.51
2019-03-25T01:40:30.661Z,9.45
2019-03-25T01:42:58.960Z,9.40
2019-03-25T01:45:27.264Z,9.38
2019-03-25T01:47:55.537Z,9.33
2019-03-25T01:50:23.970Z,9.33
2019-03-25T01:52:52.332Z,9.31
2019-03-25T01:55:20.655Z,9.29
2019-03-25T01:57:48.964Z,9.22
2019-03-25T02:00:17.502Z,9.25
2019-03-25T02:02:45.803Z,9.16
2019-03-25T02:05:14.290Z,9.10
2019-03-25T02:07:42.593Z,9.02
2019-03-25T02:10:11.440Z,8.91
2019-03-25T02:12:39.734Z,8.81
2019-03-25T02:15:08.844Z,8.85
2019-03-25T02:17:37.075Z,8.82
2019-03-25T02:20:05.597Z,8.80
2019-03-25T02:22:34.065Z,8.76
2019-03-25T02:25:03.212Z,8.77
2019-03-25T02:27:31.556Z,8.75
2019-03-25T02:29:59.800Z,8.75
2019-03-25T02:32:28.121Z,8.77
2019-03-25T02:34:56.376Z,8.76
2019-03-25T02:37:24.685Z,8.68
2019-03-25T02:39:52.985Z,8.60
2019-03-25T02:42:21.373Z,8.60
2019-03-25T02:44:49.646Z,8.60
2019-03-25T02:47:17.987Z,8.55
2019-03-25T02:49:46.251Z,8.56
2019-03-25T02:52:14.718Z,8.55
2019-03-25T02:54:43.004Z,8.54
2019-03-25T02:57:13.757Z,8.52
2019-03-25T02:59:42.104Z,8.50
2019-03-25T03:02:10.418Z,8.49
2019-03-25T03:04:38.739Z,8.47
2019-03-25T03:07:07.120Z,8.45
2019-03-25T03:09:35.402Z,8.42
2019-03-25T03:12:04.067Z,8.42
2019-03-25T03:14:32.368Z,8.35
2019-03-25T03:17:00.804Z,8.31
2019-03-25T03:19:29.055Z,8.24
2019-03-25T03:21:57.498Z,8.17
2019-03-25T03:24:25.870Z,8.12
2019-03-25T03:26:54.194Z,8.08
2019-03-25T03:29:22.469Z,8.08
2019-03-25T03:31:50.771Z,8.01
2019-03-25T03:34:19.575Z,8.03
2019-03-25T03:36:47.998Z,7.96
2019-03-25T03:39:16.393Z,7.96
2019-03-25T03:41:44.733Z,7.92
2019-03-25T03:44:13.658Z,7.93
2019-03-25T03:46:42.008Z,7.90
2019-03-25T03:49:10.307Z,7.84
2019-03-25T03:51:38.737Z,7.86
2019-03-25T03:54:07.409Z,7.81
2019-03-25T03:56:36.554Z,7.78
2019-03-25T03:59:05.042Z,7.71
2019-03-25T04:01:35.298Z,7.67
2019-03-25T04:04:03.627Z,7.62
2019-03-25T04:06:31.966Z,7.56
2019-03-25T04:09:00.410Z,7.59
2019-03-25T04:11:28.799Z,7.54
2019-03-25T04:13:57.166Z,7.54
2019-03-25T04:16:25.531Z,7.49
2019-03-25T04:18:53.859Z,7.49
2019-03-25T04:21:22.724Z,7.49
2019-03-25T04:23:51.051Z,7.44
2019-03-25T04:26:28.672Z,7.47
2019-03-25T04:28:50.185Z,7.44
2019-03-25T04:31:19.268Z,7.43
2019-03-25T04:33:47.698Z,7.39
2019-03-25T04:36:16.191Z,7.40
2019-03-25T04:38:44.532Z,7.40
2019-03-25T04:41:13.339Z,7.37
2019-03-25T04:43:41.742Z,7.37
2019-03-25T04:46:10.026Z,7.38
2019-03-25T04:48:38.843Z,7.32
2019-03-25T04:51:07.593Z,7.30
2019-03-25T04:53:35.892Z,7.27
2019-03-25T04:56:04.380Z,7.19
2019-03-25T04:58:32.710Z,7.22
2019-03-25T05:01:00.952Z,7.19
2019-03-25T05:03:29.261Z,7.01
2019-03-25T05:05:57.616Z,7.01
2019-03-25T05:08:26.080Z,7.13
2019-03-25T05:10:54.464Z,7.17
2019-03-25T05:13:22.770Z,7.16
2019-03-25T05:15:51.025Z,7.16
2019-03-25T05:18:19.933Z,7.16
2019-03-25T05:20:48.197Z,7.16
2019-03-25T05:23:17.477Z,7.14
2019-03-25T05:25:45.714Z,7.19
2019-03-25T05:28:14.024Z,7.21
2019-03-25T05:30:42.327Z,7.14
2019-03-25T05:33:18.318Z,7.12
2019-03-25T05:35:46.926Z,7.11
2019-03-25T05:38:15.522Z,7.11
2019-03-25T05:40:43.738Z,7.14
2019-03-25T05:43:12.126Z,7.06
2019-03-25T05:45:41.201Z,7.04
2019-03-25T05:48:09.525Z,7.07
2019-03-25T05:50:38.529Z,7.11
2019-03-25T05:53:06.935Z,7.12
2019-03-25T05:55:35.236Z,7.19
2019-03-25T05:58:03.866Z,7.17
2019-03-25T06:00:34.434Z,7.14
2019-03-25T06:03:02.844Z,7.14
2019-03-25T06:05:31.269Z,7.16
2019-03-25T06:07:59.556Z,7.19
2019-03-25T06:10:27.954Z,7.22
2019-03-25T06:12:57.030Z,7.23
2019-03-25T06:15:25.383Z,7.15
2019-03-25T06:17:53.685Z,7.22
2019-03-25T06:20:22.024Z,7.19
2019-03-25T06:22:50.321Z,7.28
2019-03-25T06:25:18.927Z,7.26
2019-03-25T06:27:47.832Z,7.34
2019-03-25T06:30:16.888Z,7.33
2019-03-25T06:32:45.176Z,7.37
2019-03-25T06:35:19.458Z,7.41
2019-03-25T06:37:47.740Z,7.46
2019-03-25T06:40:17.142Z,7.45
2019-03-25T06:42:45.445Z,7.46
2019-03-25T06:45:14.478Z,7.42
2019-03-25T06:47:42.876Z,7.44
2019-03-25T06:50:11.632Z,7.49
2019-03-25T06:52:40.056Z,7.57
2019-03-25T06:55:08.799Z,7.59
2019-03-25T06:57:38.633Z,7.60
2019-03-25T07:00:08.943Z,7.66
2019-03-25T07:02:37.206Z,7.71
2019-03-25T07:05:06.782Z,7.66
2019-03-25T07:07:35.136Z,7.65
2019-03-25T07:10:03.985Z,7.75
2019-03-25T07:12:32.334Z,7.69
2019-03-25T07:15:00.677Z,7.81
2019-03-25T07:17:28.938Z,7.85
2019-03-25T07:19:57.256Z,7.89
2019-03-25T07:22:25.717Z,7.90
2019-03-25T07:24:54.057Z,7.90
2019-03-25T07:27:22.339Z,8.03
2019-03-25T07:29:50.667Z,8.12
2019-03-25T07:32:19.003Z,8.23
2019-03-25T07:34:47.319Z,8.17
2019-03-25T07:37:23.844Z,8.32
2019-03-25T07:39:52.630Z,8.40
2019-03-25T07:42:20.868Z,8.43
2019-03-25T07:44:50.039Z,8.42
2019-03-25T07:47:18.373Z,8.47
2019-03-25T07:49:46.698Z,8.58
2019-03-25T07:52:15.064Z,8.55
2019-03-25T07:54:44.109Z,8.57
2019-03-25T07:57:12.502Z,8.61
2019-03-25T07:59:40.922Z,8.69
2019-03-25T08:02:09.183Z,8.80
2019-03-25T08:04:38.755Z,8.86
2019-03-25T08:07:07.243Z,8.89
2019-03-25T08:09:35.518Z,9.00
2019-03-25T08:12:03.827Z,9.08
2019-03-25T08:14:32.300Z,9.19
2019-03-25T08:17:00.576Z,9.34
2019-03-25T08:19:29.555Z,9.35
2019-03-25T08:21:57.868Z,9.37
2019-03-25T08:24:26.241Z,9.45
2019-03-25T08:26:54.575Z,9.45
2019-03-25T08:29:22.829Z,9.43
2019-03-25T08:31:51.655Z,9.41
2019-03-25T08:34:19.907Z,9.48
2019-03-25T08:36:48.339Z,9.62
2019-03-25T08:39:19.632Z,9.77
2019-03-25T08:41:48.739Z,10.23
2019-03-25T08:44:17.249Z,10.61
2019-03-25T08:46:45.700Z,10.77
2019-03-25T08:49:13.947Z,10.56
2019-03-25T08:51:42.270Z,10.32
2019-03-25T08:54:10.554Z,10.20
2019-03-25T08:56:38.836Z,10.20
2019-03-25T08:59:08.321Z,10.23
2019-03-25T09:01:36.638Z,10.35
2019-03-25T09:04:05.010Z,10.34
2019-03-25T09:06:33.315Z,10.26
2019-03-25T09:09:01.858Z,9.85
2019-03-25T09:11:30.139Z,9.86
2019-03-25T09:13:58.404Z,9.76
2019-03-25T09:16:26.860Z,9.67
2019-03-25T09:18:55.138Z,9.58
2019-03-25T09:21:23.484Z,9.42
2019-03-25T09:23:51.724Z,9.56
2019-03-25T09:26:20.275Z,9.58
2019-03-25T09:28:48.667Z,9.66
2019-03-25T09:31:19.816Z,9.67
2019-03-25T09:33:48.523Z,9.79
2019-03-25T09:36:20.123Z,9.79
2019-03-25T09:38:48.992Z,9.74
2019-03-25T09:41:20.055Z,9.71
2019-03-25T09:43:48.696Z,9.66
2019-03-25T09:46:17.169Z,9.60
2019-03-25T09:48:45.692Z,9.65
2019-03-25T09:51:14.472Z,9.61
2019-03-25T09:53:44.157Z,9.57
2019-03-25T09:56:12.663Z,9.52
2019-03-25T09:58:41.097Z,9.57
2019-03-25T10:01:09.608Z,9.75
2019-03-25T10:03:38.133Z,9.70
2019-03-25T10:06:06.606Z,9.70
2019-03-25T10:08:35.118Z,9.71
2019-03-25T10:11:03.631Z,9.69
2019-03-25T10:13:32.069Z,9.86
2019-03-25T10:16:00.517Z,9.97
2019-03-25T10:18:29.046Z,10.11
2019-03-25T10:20:57.409Z,10.30
2019-03-25T10:23:25.733Z,10.43
2019-03-25T10:25:55.097Z,10.44
2019-03-25T10:28:23.488Z,10.56
2019-03-25T10:30:51.974Z,10.77
2019-03-25T10:33:20.517Z,10.92
2019-03-25T10:35:48.898Z,10.82
2019-03-25T10:38:19.745Z,10.70
2019-03-25T10:40:47.508Z,10.58
2019-03-25T10:43:16.863Z,10.64
2019-03-25T10:45:45.216Z,10.87
2019-03-25T10:48:13.608Z,11.01
2019-03-25T10:50:41.964Z,11.08
2019-03-25T10:53:10.397Z,10.98
2019-03-25T10:55:39.308Z,11.02
2019-03-25T10:58:07.698Z,10.98
2019-03-25T11:00:36.386Z,10.73
2019-03-25T11:03:04.882Z,10.71
2019-03-25T11:05:33.140Z,10.66
2019-03-25T11:08:01.705Z,10.53
2019-03-25T11:10:30.169Z,10.42
2019-03-25T11:12:58.547Z,10.30
2019-03-25T11:15:26.902Z,10.67
2019-03-25T11:17:55.251Z,10.78
2019-03-25T11:20:23.613Z,11.11
2019-03-25T11:22:52.541Z,11.14
2019-03-25T11:25:20.796Z,11.00
2019-03-25T11:27:54.360Z,10.83
2019-03-25T11:30:33.837Z,10.70
2019-03-25T11:33:02.724Z,10.60
2019-03-25T11:35:31.768Z,10.51
2019-03-25T11:38:00.077Z,10.28
2019-03-25T11:40:28.319Z,9.87
2019-03-25T11:42:56.669Z,9.95
2019-03-25T11:45:25.175Z,9.80
2019-03-25T11:47:53.414Z,9.28
2019-03-25T11:50:21.777Z,8.94
2019-03-25T11:52:50.314Z,8.91
2019-03-25T11:55:18.712Z,9.02
2019-03-25T11:57:47.758Z,8.97
2019-03-25T12:00:16.328Z,8.94
2019-03-25T12:02:44.673Z,9.05
2019-03-25T12:05:13.795Z,9.08
2019-03-25T12:07:42.853Z,8.98
2019-03-25T12:10:11.489Z,8.53
2019-03-25T12:26:01.073Z,7.76
2019-03-25T12:28:29.395Z,7.75
2019-03-25T12:30:57.688Z,7.68
2019-03-25T12:33:28.515Z,7.69
2019-03-25T12:35:59.228Z,7.72
2019-03-25T12:38:27.439Z,7.69
2019-03-25T12:40:55.841Z,7.76
2019-03-25T12:43:24.249Z,7.84
2019-03-25T12:45:52.621Z,8.02
2019-03-25T12:48:20.949Z,8.32
2019-03-25T12:50:49.223Z,8.39
2019-03-25T12:53:17.427Z,8.63
2019-03-25T12:55:46.756Z,8.95
2019-03-25T12:58:15.183Z,9.13
2019-03-25T13:00:44.196Z,8.79
2019-03-25T13:03:12.586Z,8.48
2019-03-25T13:05:41.041Z,8.12
2019-03-25T13:08:09.449Z,7.97
2019-03-25T13:10:37.844Z,7.82
2019-03-25T13:13:06.275Z,7.84
2019-03-25T13:15:35.458Z,7.78
2019-03-25T13:18:03.951Z,7.72
2019-03-25T13:20:32.214Z,7.75
2019-03-25T13:23:00.437Z,7.78
2019-03-25T13:25:28.724Z,7.68
2019-03-25T13:28:00.431Z,7.60
2019-03-25T13:30:28.921Z,7.51
2019-03-25T13:32:57.244Z,7.15
2019-03-25T13:35:26.626Z,7.27
2019-03-25T13:37:54.864Z,7.39
2019-03-25T13:40:23.110Z,7.44
2019-03-25T13:42:51.436Z,7.39
2019-03-25T13:45:19.768Z,7.58
2019-03-25T13:47:47.997Z,7.68
2019-03-25T13:50:16.470Z,7.69
2019-03-25T13:52:44.719Z,7.66
2019-03-25T13:55:13.185Z,7.57
2019-03-25T13:57:41.404Z,7.55
2019-03-25T14:00:33.037Z,7.52
2019-03-25T14:03:01.444Z,7.54
2019-03-25T14:05:29.735Z,7.35
2019-03-25T14:07:57.955Z,7.42
2019-03-25T14:10:26.248Z,7.39
2019-03-25T14:12:54.477Z,7.26
2019-03-25T14:15:22.758Z,7.16
2019-03-25T14:17:51.027Z,7.11
2019-03-25T14:20:19.487Z,7.22
2019-03-25T14:22:47.704Z,7.15
2019-03-25T14:25:15.957Z,7.32
2019-03-25T14:27:44.229Z,7.53
2019-03-25T14:30:15.203Z,8.07
2019-03-25T14:32:43.689Z,8.47
2019-03-25T14:35:13.909Z,8.51
2019-03-25T14:37:42.194Z,8.13
2019-03-25T14:40:10.544Z,7.92
2019-03-25T14:42:38.863Z,8.08
2019-03-25T14:45:07.311Z,8.03
2019-03-25T14:47:35.586Z,8.06
2019-03-25T14:50:06.028Z,8.01
2019-03-25T14:52:34.295Z,7.87
2019-03-25T14:55:03.429Z,7.98
2019-03-25T14:57:31.776Z,7.76
2019-03-25T15:00:00.321Z,7.60
2019-03-25T15:02:28.741Z,7.69
2019-03-25T15:04:57.165Z,7.67
2019-03-25T15:07:25.590Z,7.57
2019-03-25T15:09:53.834Z,7.68
2019-03-25T15:12:22.111Z,7.76
2019-03-25T15:14:50.335Z,7.82
2019-03-25T15:17:18.632Z,7.90
2019-03-25T15:19:46.860Z,7.67
2019-03-25T15:22:15.258Z,7.76
2019-03-25T15:24:43.503Z,7.84
2019-03-25T15:27:11.768Z,7.74
2019-03-25T15:29:40.783Z,7.69
2019-03-25T15:32:09.254Z,7.62
2019-03-25T15:34:37.489Z,7.65
2019-03-25T15:37:05.736Z,7.56
2019-03-25T15:39:34.557Z,7.57
2019-03-25T15:42:03.093Z,7.49
2019-03-25T15:44:31.323Z,7.49
2019-03-25T15:46:59.725Z,7.43
2019-03-25T15:49:28.072Z,7.52
2019-03-25T15:51:56.433Z,7.48
2019-03-25T15:54:24.660Z,7.57
2019-03-25T15:56:52.948Z,7.59
2019-03-25T15:59:21.175Z,7.65
2019-03-25T16:01:49.735Z,7.68
2019-03-25T16:04:17.981Z,7.66
2019-03-25T16:06:52.151Z,7.93
2019-03-25T16:09:20.382Z,8.02
2019-03-25T16:11:48.747Z,8.14
2019-03-25T16:14:16.988Z,8.11
2019-03-25T16:16:45.285Z,7.97
2019-03-25T16:19:13.600Z,7.91
2019-03-25T16:21:41.833Z,7.79
2019-03-25T16:24:10.112Z,7.69
2019-03-25T16:26:38.368Z,7.82
2019-03-25T16:29:06.669Z,7.97
2019-03-25T16:31:34.923Z,8.07
2019-03-25T16:34:03.214Z,8.19
2019-03-25T16:36:31.463Z,8.15
2019-03-25T16:39:00.943Z,8.07
2019-03-25T16:41:29.299Z,7.94
2019-03-25T16:43:57.680Z,7.80
2019-03-25T16:46:26.483Z,7.88
2019-03-25T16:48:55.434Z,7.80
2019-03-25T16:51:23.834Z,7.75
2019-03-25T16:53:52.725Z,7.77
2019-03-25T16:56:20.936Z,7.72
2019-03-25T16:58:49.233Z,7.54
2019-03-25T17:01:17.453Z,7.63
2019-03-25T17:03:45.922Z,7.74
2019-03-25T17:06:14.452Z,7.76
2019-03-25T17:08:42.757Z,7.81
2019-03-25T17:11:11.040Z,7.81
2019-03-25T17:13:39.456Z,7.68
2019-03-25T17:16:07.701Z,7.75
2019-03-25T17:18:35.999Z,7.71
2019-03-25T17:21:04.394Z,7.76
2019-03-25T17:23:32.654Z,7.75
2019-03-25T17:26:00.894Z,7.73
2019-03-25T17:28:29.200Z,7.73
2019-03-25T17:30:57.528Z,7.67
2019-03-25T17:33:25.807Z,7.30
2019-03-25T17:35:54.627Z,6.89
2019-03-25T17:38:23.624Z,6.91
2019-03-25T17:40:51.849Z,6.95
2019-03-25T17:43:20.835Z,6.98
2019-03-25T17:45:49.077Z,6.59
2019-03-25T17:48:17.357Z,6.80
2019-03-25T17:50:46.110Z,6.84
2019-03-25T17:53:14.335Z,6.85
2019-03-25T17:55:42.679Z,6.86
2019-03-25T17:58:11.119Z,6.82
2019-03-25T18:01:11.573Z,6.86
2019-03-25T18:03:39.918Z,6.89
2019-03-25T18:06:08.405Z,6.89
2019-03-25T18:08:37.177Z,6.87
2019-03-25T18:11:05.432Z,6.91
2019-03-25T18:13:33.991Z,6.84
2019-03-25T18:16:02.263Z,6.87
2019-03-25T18:18:30.692Z,6.84
2019-03-25T18:20:58.992Z,6.84
2019-03-25T18:23:27.206Z,6.82
2019-03-25T18:25:55.485Z,6.81
2019-03-25T18:28:23.720Z,6.77
2019-03-25T18:30:53.142Z,6.70
2019-03-25T18:33:21.399Z,6.64
2019-03-25T18:35:49.653Z,6.58
2019-03-25T18:38:17.882Z,6.50
2019-03-25T18:40:47.078Z,6.42
2019-03-25T18:43:15.398Z,6.24
2019-03-25T18:45:43.893Z,6.00
2019-03-25T18:48:12.131Z,5.98
2019-03-25T18:50:40.721Z,5.92
2019-03-25T18:53:12.253Z,5.87
2019-03-25T18:55:41.055Z,5.86
2019-03-25T18:58:09.503Z,5.74
2019-03-25T19:00:37.896Z,5.87
2019-03-25T19:03:06.207Z,5.79
2019-03-25T19:05:35.338Z,5.86
2019-03-25T19:08:05.036Z,5.80
2019-03-25T19:10:33.428Z,5.85
2019-03-25T19:13:01.756Z,5.92
2019-03-25T19:15:31.051Z,5.92
2019-03-25T19:17:59.274Z,5.85
2019-03-25T19:20:27.592Z,5.75
2019-03-25T19:22:55.814Z,5.71
2019-03-25T19:25:24.188Z,5.72
2019-03-25T19:27:52.438Z,5.81
2019-03-25T19:30:20.712Z,5.71
2019-03-25T19:32:49.028Z,5.64
2019-03-25T19:35:17.727Z,5.49
2019-03-25T19:37:45.999Z,5.44
2019-03-25T19:40:14.805Z,5.45
2019-03-25T19:42:43.040Z,5.36
2019-03-25T19:45:11.742Z,5.39
2019-03-25T19:47:40.735Z,5.38
2019-03-25T19:50:09.509Z,5.44
2019-03-25T19:52:37.754Z,5.44
2019-03-25T19:55:06.737Z,5.43
2019-03-25T19:57:35.054Z,5.28
2019-03-25T20:00:04.252Z,5.27
2019-03-25T20:02:32.497Z,5.34
2019-03-25T20:05:01.012Z,5.40
2019-03-25T20:07:29.593Z,5.43
2019-03-25T20:09:58.494Z,5.34
2019-03-25T20:12:26.785Z,5.35
2019-03-25T20:14:55.791Z,5.33
2019-03-25T20:17:24.183Z,5.30
2019-03-25T20:19:52.557Z,5.44
2019-03-25T20:22:21.611Z,5.40
2019-03-25T20:24:50.325Z,5.25
2019-03-25T20:27:18.659Z,5.31
2019-03-25T20:29:47.444Z,5.33
2019-03-25T20:32:16.021Z,5.33
2019-03-25T20:34:44.450Z,5.31
2019-03-25T20:37:12.806Z,5.33
2019-03-25T20:39:41.028Z,5.38
2019-03-25T20:42:09.570Z,5.33
2019-03-25T20:44:38.060Z,5.20
2019-03-25T20:47:06.330Z,5.25
2019-03-25T20:49:34.533Z,5.34
2019-03-25T20:52:02.971Z,5.35
2019-03-25T20:54:31.371Z,5.28
2019-03-25T20:56:59.652Z,5.32
2019-03-25T20:59:27.958Z,5.27
2019-03-25T21:01:56.250Z,5.14
2019-03-25T21:04:24.551Z,5.21
2019-03-25T21:06:54.574Z,5.23
2019-03-25T21:09:23.032Z,5.13
2019-03-25T21:11:51.433Z,5.26
2019-03-25T21:14:19.864Z,5.15
2019-03-25T21:16:48.243Z,5.19
2019-03-25T21:19:16.503Z,5.17
2019-03-25T21:21:44.924Z,5.11
2019-03-25T21:24:13.146Z,5.08
2019-03-25T21:26:41.546Z,5.07
2019-03-25T21:29:09.971Z,5.00
2019-03-25T21:31:39.244Z,5.03
2019-03-25T21:34:07.812Z,5.01
2019-03-25T21:36:36.149Z,5.11
2019-03-25T21:39:06.161Z,5.13
2019-03-25T21:41:34.451Z,5.15
2019-03-25T21:44:02.962Z,5.08
2019-03-25T21:46:31.306Z,5.06
2019-03-25T21:49:04.458Z,5.09
2019-03-25T21:51:35.344Z,5.07
2019-03-25T21:54:03.798Z,5.04
2019-03-25T21:56:32.029Z,4.99
2019-03-25T21:59:00.616Z,5.11
2019-03-25T22:01:29.151Z,5.07
2019-03-25T22:03:57.760Z,5.05
2019-03-25T22:06:26.732Z,5.05
2019-03-25T22:08:55.052Z,5.06
2019-03-25T22:11:23.314Z,5.04
2019-03-25T22:13:51.612Z,5.09
2019-03-25T22:16:20.611Z,5.02
2019-03-25T22:18:48.914Z,5.08
2019-03-25T22:21:17.158Z,5.06
2019-03-25T22:23:45.534Z,5.02
2019-03-25T22:26:13.782Z,5.04
2019-03-25T22:28:42.121Z,5.11
2019-03-25T22:31:10.343Z,5.00
2019-03-25T22:33:38.762Z,5.00
2019-03-25T22:36:07.021Z,5.02
2019-03-25T22:38:35.315Z,4.98
2019-03-25T22:41:04.222Z,5.08
2019-03-25T22:43:33.635Z,5.13
2019-03-25T22:46:01.948Z,5.02
2019-03-25T22:48:30.276Z,5.05
2019-03-25T22:50:59.206Z,4.94
2019-03-25T22:53:27.561Z,5.00
2019-03-25T22:55:55.880Z,4.96
2019-03-25T22:58:24.175Z,4.98
2019-03-25T23:00:53.099Z,5.06
2019-03-25T23:03:21.407Z,5.06
2019-03-25T23:05:49.807Z,5.12
2019-03-25T23:08:18.209Z,5.17
2019-03-25T23:10:47.227Z,5.17
2019-03-25T23:13:15.634Z,5.09
2019-03-25T23:15:44.031Z,5.09
2019-03-25T23:18:12.365Z,5.09
2019-03-25T23:20:40.575Z,5.19
2019-03-25T23:23:08.884Z,5.21
2019-03-25T23:25:37.152Z,5.24
2019-03-25T23:28:05.537Z,5.31
2019-03-25T23:30:33.868Z,5.23
2019-03-25T23:33:02.215Z,5.22
2019-03-25T23:35:30.462Z,5.30
2019-03-25T23:37:58.816Z,5.27
2019-03-25T23:40:27.043Z,5.25
2019-03-25T23:42:55.819Z,5.28
2019-03-25T23:45:24.119Z,5.14
2019-03-25T23:47:52.389Z,5.15
2019-03-25T23:50:20.759Z,5.22
2019-03-25T23:52:49.907Z,5.13
2019-03-25T23:55:18.231Z,5.10
2019-03-25T23:57:46.595Z,5.09
